createdAt,value
2022-11-30T00:10:02.031Z,-2.25
2022-11-30T00:20:09.718Z,-2.27
2022-11-30T00:30:17.418Z,-2.24
2022-11-30T00:40:23.137Z,-2.20
2022-11-30T00:50:28.812Z,-2.23
2022-11-30T01:00:34.511Z,-2.23
2022-11-30T01:10:41.825Z,-2.19
2022-11-30T01:20:47.456Z,-2.23
2022-11-30T01:31:00.813Z,-2.30
2022-11-30T01:41:08.004Z,-2.32
2022-11-30T01:51:13.638Z,-2.31
2022-11-30T02:01:19.391Z,-2.26
2022-11-30T02:11:28.319Z,-2.21
2022-11-30T02:21:43.056Z,-2.28
2022-11-30T02:31:56.365Z,-2.30
2022-11-30T02:42:02.117Z,-2.30
2022-11-30T02:52:10.354Z,-2.32
2022-11-30T03:02:16.137Z,-2.43
2022-11-30T03:12:21.802Z,-2.46
2022-11-30T03:22:27.680Z,-2.50
2022-11-30T03:32:33.245Z,-2.59
2022-11-30T03:42:38.926Z,-2.62
2022-11-30T03:52:44.607Z,-2.57
2022-11-30T04:02:50.417Z,-2.59
2022-11-30T04:12:56.134Z,-2.62
2022-11-30T04:23:02.549Z,-2.70
2022-11-30T04:33:08.636Z,-2.68
2022-11-30T04:43:14.930Z,-2.68
2022-11-30T04:53:19.112Z,-2.63
2022-11-30T05:03:24.824Z,-2.66
2022-11-30T05:13:30.705Z,-2.70
2022-11-30T05:23:36.422Z,-2.65
2022-11-30T05:33:42.284Z,-2.65
2022-11-30T05:43:48.163Z,-2.71
2022-11-30T05:53:54.104Z,-2.68
2022-11-30T06:04:03.517Z,-2.67
2022-11-30T06:14:12.008Z,-2.68
2022-11-30T06:24:17.781Z,-2.69
2022-11-30T06:34:23.648Z,-2.67
2022-11-30T06:44:29.274Z,-2.62
2022-11-30T06:54:35.146Z,-2.56
2022-11-30T07:04:40.960Z,-2.47
2022-11-30T07:14:46.931Z,-2.41
2022-11-30T07:25:10.122Z,-2.37
2022-11-30T07:35:15.922Z,-2.38
2022-11-30T07:45:21.740Z,-2.31
2022-11-30T07:55:27.444Z,-2.19
2022-11-30T08:05:33.203Z,-2.08
2022-11-30T08:15:39.177Z,-2.00
2022-11-30T08:25:47.814Z,-1.93
2022-11-30T08:35:53.687Z,-1.87
2022-11-30T08:45:59.597Z,-1.81
2022-11-30T08:56:08.823Z,-1.74
2022-11-30T09:06:16.781Z,-1.62
2022-11-30T09:16:23.160Z,-1.59
2022-11-30T09:26:29.249Z,-1.52
2022-11-30T09:36:36.692Z,-1.46
2022-11-30T09:46:48.749Z,-1.43
2022-11-30T09:56:54.939Z,-1.36
2022-11-30T10:07:11.032Z,-1.36
2022-11-30T10:17:23.876Z,-1.26
2022-11-30T10:27:43.264Z,-1.36
2022-11-30T10:37:51.433Z,-1.29
2022-11-30T10:48:04.261Z,-1.26
2022-11-30T10:58:20.720Z,-1.34
2022-11-30T11:08:28.311Z,-1.11
2022-11-30T11:18:35.180Z,-1.03
2022-11-30T11:28:47.744Z,-1.10
2022-11-30T11:38:53.565Z,-1.14
2022-11-30T11:49:02.901Z,-1.20
2022-11-30T11:59:19.065Z,-1.23
2022-11-30T12:09:30.590Z,-1.21
2022-11-30T12:19:43.988Z,-1.22
2022-11-30T12:30:02.504Z,-1.20
2022-11-30T12:40:24.601Z,-1.10
2022-11-30T12:50:47.121Z,-1.03
2022-11-30T13:01:09.229Z,-0.95
2022-11-30T13:11:19.541Z,-0.93
2022-11-30T13:21:31.536Z,-0.92
2022-11-30T13:31:42.324Z,-0.93
2022-11-30T13:41:50.609Z,-0.87
2022-11-30T13:52:21.402Z,-0.81
2022-11-30T14:02:54.256Z,-0.82
2022-11-30T14:13:03.083Z,-0.81
2022-11-30T14:23:13.182Z,-0.80
2022-11-30T14:33:25.188Z,-0.79
2022-11-30T14:43:31.435Z,-0.87
2022-11-30T14:53:45.406Z,-0.87
2022-11-30T15:03:53.804Z,-0.84
2022-11-30T15:14:11.691Z,-0.82
2022-11-30T15:24:18.075Z,-0.88
2022-11-30T15:34:32.975Z,-0.91
2022-11-30T15:44:45.639Z,-0.94
2022-11-30T15:54:55.216Z,-0.99
2022-11-30T16:05:23.745Z,-1.01
2022-11-30T16:15:35.038Z,-1.12
2022-11-30T16:25:41.104Z,-1.25
2022-11-30T16:35:54.490Z,-1.37
2022-11-30T16:46:02.875Z,-1.39
2022-11-30T16:56:13.122Z,-1.39
2022-11-30T17:06:22.060Z,-1.43
2022-11-30T17:16:28.241Z,-1.42
2022-11-30T17:26:34.749Z,-1.35
2022-11-30T17:36:40.893Z,-1.30
2022-11-30T17:46:58.592Z,-1.24
2022-11-30T17:57:05.248Z,-1.18
2022-11-30T18:07:14.097Z,-1.13
2022-11-30T18:17:23.088Z,-1.12
2022-11-30T18:27:32.233Z,-1.08
2022-11-30T18:37:37.525Z,-1.03
2022-11-30T18:47:44.810Z,-1.02
2022-11-30T18:57:52.098Z,-1.03
2022-11-30T19:07:58.752Z,-1.05
2022-11-30T19:18:05.850Z,-1.03
2022-11-30T19:28:14.728Z,-1.00
2022-11-30T19:38:24.915Z,-1.03
2022-11-30T19:48:31.547Z,-1.02
2022-11-30T19:58:51.506Z,-0.96
2022-11-30T20:09:00.472Z,-0.91
2022-11-30T20:19:26.750Z,-0.84
2022-11-30T20:29:43.103Z,-0.81
2022-11-30T20:40:12.206Z,-0.77
2022-11-30T20:50:38.014Z,-0.74
2022-11-30T21:00:51.086Z,-0.69
2022-11-30T21:11:06.153Z,-0.67
2022-11-30T21:21:33.727Z,-0.65
2022-11-30T21:31:45.327Z,-0.62
2022-11-30T21:42:10.880Z,-0.55
2022-11-30T21:52:17.639Z,-0.54
2022-11-30T22:02:43.648Z,-0.51
2022-11-30T22:13:00.819Z,-0.49
2022-11-30T22:23:14.878Z,-0.46
2022-11-30T22:33:41.707Z,-0.41
2022-11-30T22:43:49.216Z,-0.37
2022-11-30T22:54:05.267Z,-0.32
2022-11-30T23:04:14.596Z,-0.31
2022-11-30T23:14:40.341Z,-0.32
2022-11-30T23:25:02.260Z,-0.30
2022-11-30T23:35:28.065Z,-0.27
2022-11-30T23:45:34.776Z,-0.23
2022-11-30T23:56:05.548Z,-0.19
